createdAt,value
2023-02-02T00:00:16.676Z,-1.62
2023-02-02T00:03:25.409Z,-1.56
2023-02-02T00:06:34.760Z,-1.58
2023-02-02T00:09:55.260Z,-1.58
2023-02-02T00:13:40.290Z,-1.65
2023-02-02T00:17:49.698Z,-1.84
2023-02-02T00:21:27.160Z,-1.75
2023-02-02T00:24:52.459Z,-1.71
2023-02-02T00:28:05.331Z,-1.77
2023-02-02T00:31:13.336Z,-1.84
2023-02-02T00:34:23.704Z,-1.82
2023-02-02T00:37:32.753Z,-1.94
2023-02-02T00:40:39.802Z,-1.86
2023-02-02T00:43:46.989Z,-1.90
2023-02-02T00:46:54.043Z,-1.89
2023-02-02T00:50:00.158Z,-1.91
2023-02-02T00:53:09.915Z,-1.99
2023-02-02T00:56:16.197Z,-1.88
2023-02-02T00:59:23.134Z,-1.90
2023-02-02T01:02:29.411Z,-2.04
2023-02-02T01:05:38.044Z,-1.87
2023-02-02T01:08:46.801Z,-1.82
2023-02-02T01:11:53.841Z,-1.85
2023-02-02T01:14:59.992Z,-1.82
2023-02-02T01:18:09.252Z,-1.73
2023-02-02T01:21:18.257Z,-1.85
2023-02-02T01:24:29.641Z,-1.82
2023-02-02T01:27:35.798Z,-1.71
2023-02-02T01:30:43.929Z,-1.70
2023-02-02T01:33:56.463Z,-1.69
2023-02-02T01:37:04.980Z,-1.70
2023-02-02T01:40:20.985Z,-1.69
2023-02-02T01:43:32.320Z,-1.68
2023-02-02T01:46:47.436Z,-1.60
2023-02-02T01:49:59.526Z,-1.54
2023-02-02T01:53:16.384Z,-1.55
2023-02-02T01:56:35.836Z,-1.53
2023-02-02T01:59:42.992Z,-1.55
2023-02-02T02:02:52.573Z,-1.51
2023-02-02T02:06:08.959Z,-1.43
2023-02-02T02:09:15.718Z,-1.42
2023-02-02T02:12:24.283Z,-1.50
2023-02-02T02:15:59.261Z,-1.50
2023-02-02T02:19:33.701Z,-1.46
2023-02-02T02:23:45.933Z,-1.42
2023-02-02T02:27:42.187Z,-1.27
2023-02-02T02:31:27.818Z,-1.33
2023-02-02T02:34:56.474Z,-1.20
2023-02-02T02:38:19.589Z,-1.22
2023-02-02T02:41:36.613Z,-1.18
2023-02-02T02:44:44.988Z,-1.14
2023-02-02T02:47:54.424Z,-1.15
2023-02-02T02:51:43.927Z,-1.04
2023-02-02T02:54:58.649Z,-1.04
2023-02-02T02:58:24.672Z,-1.11
2023-02-02T03:01:48.492Z,-1.08
2023-02-02T03:05:25.437Z,-0.97
2023-02-02T03:08:44.744Z,-0.94
2023-02-02T03:11:51.537Z,-0.97
2023-02-02T03:14:57.493Z,-0.90
2023-02-02T03:18:04.554Z,-0.87
2023-02-02T03:21:10.445Z,-0.84
2023-02-02T03:24:32.240Z,-0.85
2023-02-02T03:27:38.127Z,-0.80
2023-02-02T03:30:47.769Z,-0.78
2023-02-02T03:33:56.480Z,-0.79
2023-02-02T03:37:03.314Z,-0.75
2023-02-02T03:40:14.353Z,-0.71
2023-02-02T03:43:24.652Z,-0.75
2023-02-02T03:46:30.851Z,-0.71
2023-02-02T03:49:37.643Z,-0.68
2023-02-02T03:52:47.098Z,-0.71
2023-02-02T03:55:56.526Z,-0.66
2023-02-02T03:59:02.377Z,-0.65
2023-02-02T04:02:25.233Z,-0.64
2023-02-02T04:05:31.305Z,-0.63
2023-02-02T04:08:39.707Z,-0.59
2023-02-02T04:11:48.236Z,-0.65
2023-02-02T04:14:54.991Z,-0.62
2023-02-02T04:18:00.940Z,-0.57
2023-02-02T04:21:20.305Z,-0.50
2023-02-02T04:24:36.599Z,-0.50
2023-02-02T04:27:47.020Z,-0.58
2023-02-02T04:30:53.570Z,-0.58
2023-02-02T04:34:00.967Z,-0.67
2023-02-02T04:37:06.848Z,-0.62
2023-02-02T04:40:16.191Z,-0.63
2023-02-02T04:43:24.702Z,-0.66
2023-02-02T04:46:32.386Z,-0.66
2023-02-02T04:49:38.180Z,-0.70
2023-02-02T04:52:44.949Z,-0.67
2023-02-02T04:55:50.811Z,-0.71
2023-02-02T04:59:00.158Z,-0.68
2023-02-02T05:02:07.399Z,-0.56
2023-02-02T05:05:17.617Z,-0.54
2023-02-02T05:08:23.614Z,-0.49
2023-02-02T05:11:31.128Z,-0.38
2023-02-02T05:14:39.582Z,-0.41
2023-02-02T05:17:46.302Z,-0.38
2023-02-02T05:20:52.179Z,-0.38
2023-02-02T05:23:59.954Z,-0.32
2023-02-02T05:27:05.987Z,-0.41
2023-02-02T05:30:17.820Z,-0.40
2023-02-02T05:33:23.792Z,-0.30
2023-02-02T05:36:36.864Z,-0.21
2023-02-02T05:39:46.981Z,-0.21
2023-02-02T05:42:53.726Z,-0.20
2023-02-02T05:46:03.111Z,-0.32
2023-02-02T05:49:10.109Z,-0.30
2023-02-02T05:52:25.200Z,-0.43
2023-02-02T05:55:32.211Z,-0.66
2023-02-02T05:58:38.124Z,-0.72
2023-02-02T06:01:48.145Z,-0.92
2023-02-02T06:04:54.129Z,-1.02
2023-02-02T06:08:01.860Z,-1.02
2023-02-02T06:11:13.673Z,-1.07
2023-02-02T06:14:24.414Z,-1.10
2023-02-02T06:17:33.608Z,-0.98
2023-02-02T06:20:40.767Z,-0.91
2023-02-02T06:23:50.069Z,-1.01
2023-02-02T06:27:01.950Z,-0.99
2023-02-02T06:30:09.106Z,-1.05
2023-02-02T06:33:25.023Z,-1.05
2023-02-02T06:36:31.724Z,-1.04
2023-02-02T06:39:40.447Z,-1.01
2023-02-02T06:42:46.446Z,-1.10
2023-02-02T06:45:53.390Z,-1.16
2023-02-02T06:49:01.994Z,-1.29
2023-02-02T06:52:09.980Z,-1.38
2023-02-02T06:55:15.886Z,-1.41
2023-02-02T06:58:22.631Z,-1.53
2023-02-02T07:01:28.676Z,-1.59
2023-02-02T07:04:38.804Z,-1.62
2023-02-02T07:07:44.734Z,-1.62
2023-02-02T07:11:14.155Z,-1.55
2023-02-02T07:14:17.595Z,-1.57
2023-02-02T07:17:24.319Z,-1.67
2023-02-02T07:20:32.859Z,-1.56
2023-02-02T07:23:39.543Z,-1.57
2023-02-02T07:26:46.407Z,-1.50
2023-02-02T07:29:59.887Z,-1.53
2023-02-02T07:33:25.430Z,-1.48
2023-02-02T07:36:35.029Z,-1.42
2023-02-02T07:39:40.884Z,-1.47
2023-02-02T07:42:50.125Z,-1.39
2023-02-02T07:45:56.074Z,-1.41
2023-02-02T07:49:08.900Z,-1.41
2023-02-02T07:52:22.664Z,-1.43
2023-02-02T07:55:29.582Z,-1.47
2023-02-02T07:58:35.640Z,-1.42
2023-02-02T08:01:47.218Z,-1.39
2023-02-02T08:04:53.150Z,-1.47
2023-02-02T08:08:02.619Z,-1.38
2023-02-02T08:11:11.594Z,-1.31
2023-02-02T08:14:18.326Z,-1.33
2023-02-02T08:17:24.251Z,-1.30
2023-02-02T08:20:31.226Z,-1.26
2023-02-02T08:23:41.935Z,-1.29
2023-02-02T08:26:49.017Z,-1.28
2023-02-02T08:29:55.157Z,-1.31
2023-02-02T08:33:02.060Z,-1.17
2023-02-02T08:36:12.698Z,-1.13
2023-02-02T08:39:22.914Z,-1.09
2023-02-02T08:42:28.927Z,-1.03
2023-02-02T08:46:13.249Z,-0.93
2023-02-02T08:49:02.614Z,-0.89
2023-02-02T08:52:12.437Z,-0.88
2023-02-02T08:55:20.877Z,-0.76
2023-02-02T08:58:51.123Z,-0.74
2023-02-02T09:01:58.931Z,-0.76
2023-02-02T09:05:05.651Z,-0.87
2023-02-02T09:08:11.789Z,-1.05
2023-02-02T09:11:22.942Z,-1.00
2023-02-02T09:14:28.786Z,-1.07
2023-02-02T09:17:41.929Z,-1.07
2023-02-02T09:20:47.832Z,-1.05
2023-02-02T09:23:56.920Z,-1.17
2023-02-02T09:27:07.844Z,-1.25
2023-02-02T09:30:16.553Z,-1.24
2023-02-02T09:33:22.689Z,-1.17
2023-02-02T09:36:29.823Z,-1.26
2023-02-02T09:39:35.735Z,-1.21
2023-02-02T09:43:09.852Z,-1.11
2023-02-02T09:46:36.558Z,-1.15
2023-02-02T09:50:01.844Z,-1.09
2023-02-02T09:53:24.830Z,-0.90
2023-02-02T09:56:44.262Z,-0.93
2023-02-02T09:59:56.990Z,-0.69
2023-02-02T10:03:15.946Z,-0.58
2023-02-02T10:06:40.567Z,-0.55
2023-02-02T10:10:18.001Z,-0.29
2023-02-02T10:13:45.157Z,-0.34
2023-02-02T10:17:02.826Z,-0.33
2023-02-02T10:20:36.952Z,-0.16
2023-02-02T10:23:47.451Z,-0.12
2023-02-02T10:26:58.826Z,-0.16
2023-02-02T10:30:18.802Z,-0.09
2023-02-02T10:33:40.987Z,0.03
2023-02-02T10:37:22.180Z,0.06
2023-02-02T10:40:48.511Z,0.11
2023-02-02T10:44:19.198Z,0.16
2023-02-02T10:47:33.504Z,-0.12
2023-02-02T10:50:51.767Z,-0.51
2023-02-02T10:54:05.417Z,-0.89
2023-02-02T10:57:19.680Z,-0.90
2023-02-02T11:00:35.654Z,-0.87
2023-02-02T11:03:42.913Z,-0.94
2023-02-02T11:06:51.754Z,-0.92
2023-02-02T11:10:01.707Z,-0.85
2023-02-02T11:13:19.337Z,-0.51
2023-02-02T11:16:42.607Z,-0.33
2023-02-02T11:19:50.066Z,-0.19
2023-02-02T11:23:08.723Z,-0.07
2023-02-02T11:26:20.927Z,-0.13
2023-02-02T11:29:38.277Z,-0.05
2023-02-02T11:48:10.888Z,-0.39
2023-02-02T11:51:29.032Z,-0.17
2023-02-02T11:54:40.810Z,0.16
2023-02-02T11:58:28.412Z,0.00
2023-02-02T12:01:45.481Z,0.07
2023-02-02T12:04:58.121Z,0.04
2023-02-02T12:08:05.265Z,0.01
2023-02-02T12:11:36.590Z,0.06
2023-02-02T12:14:56.849Z,0.03
2023-02-02T12:18:31.723Z,0.06
2023-02-02T12:22:02.675Z,-0.01
2023-02-02T12:25:52.308Z,0.03
2023-02-02T12:29:35.299Z,0.07
2023-02-02T12:33:26.932Z,0.12
2023-02-02T12:36:55.390Z,0.42
2023-02-02T12:40:28.114Z,0.50
2023-02-02T13:15:27.239Z,-0.12
2023-02-02T13:18:45.054Z,0.10
2023-02-02T13:21:54.690Z,0.31
2023-02-02T13:25:11.537Z,0.37
2023-02-02T13:28:38.685Z,0.74
2023-02-02T13:31:59.718Z,1.49
2023-02-02T13:35:19.636Z,2.42
2023-02-02T13:38:30.602Z,2.86
2023-02-02T13:41:36.900Z,2.92
2023-02-02T13:44:53.701Z,3.12
2023-02-02T13:48:22.294Z,2.88
2023-02-02T13:51:53.964Z,2.35
2023-02-02T13:55:53.058Z,2.28
2023-02-02T13:59:38.573Z,2.21
2023-02-02T14:02:52.355Z,2.11
2023-02-02T14:06:13.619Z,1.93
2023-02-02T14:09:22.977Z,1.76
2023-02-02T14:12:37.612Z,1.72
2023-02-02T14:15:47.860Z,1.55
2023-02-02T14:19:00.084Z,1.61
2023-02-02T14:22:43.902Z,1.54
2023-02-02T14:26:09.895Z,1.37
2023-02-02T14:30:00.686Z,1.15
2023-02-02T14:33:47.913Z,1.18
2023-02-02T14:37:31.770Z,0.95
2023-02-02T14:41:00.376Z,1.12
2023-02-02T14:44:07.320Z,1.08
2023-02-02T14:47:50.806Z,1.05
2023-02-02T14:51:05.977Z,0.88
2023-02-02T14:54:35.831Z,0.87
2023-02-02T14:57:43.116Z,0.98
2023-02-02T15:01:11.666Z,0.85
2023-02-02T15:04:31.015Z,0.92
2023-02-02T15:07:57.745Z,0.80
2023-02-02T15:11:24.668Z,0.75
2023-02-02T15:14:44.426Z,0.49
2023-02-02T15:18:19.695Z,0.55
2023-02-02T15:21:31.209Z,0.44
2023-02-02T15:24:41.251Z,0.49
2023-02-02T15:28:01.066Z,0.43
2023-02-02T15:31:26.140Z,0.51
2023-02-02T15:34:45.221Z,0.37
2023-02-02T15:37:59.065Z,0.42
2023-02-02T15:41:26.860Z,0.39
2023-02-02T15:44:39.631Z,0.54
2023-02-02T15:47:48.237Z,0.44
2023-02-02T15:50:57.721Z,0.52
2023-02-02T15:54:32.115Z,0.43
2023-02-02T15:57:43.550Z,0.39
2023-02-02T16:01:17.501Z,0.24
2023-02-02T16:04:33.148Z,0.43
2023-02-02T16:07:40.098Z,0.42
2023-02-02T16:10:49.230Z,0.22
2023-02-02T16:14:05.708Z,0.16
2023-02-02T16:17:28.987Z,0.15
2023-02-02T16:20:43.577Z,0.06
2023-02-02T16:23:51.643Z,0.11
2023-02-02T16:27:04.016Z,0.13
2023-02-02T16:30:26.694Z,-0.02
2023-02-02T16:33:41.513Z,0.08
2023-02-02T16:37:09.385Z,0.15
2023-02-02T16:40:32.061Z,0.06
2023-02-02T16:43:41.166Z,0.07
2023-02-02T16:46:53.339Z,-0.06
2023-02-02T16:50:37.182Z,-0.03
2023-02-02T16:53:47.259Z,0.06
2023-02-02T16:57:06.987Z,0.01
2023-02-02T17:00:27.228Z,-0.01
2023-02-02T17:03:40.885Z,-0.05
2023-02-02T17:06:53.657Z,-0.06
2023-02-02T17:10:31.120Z,-0.04
2023-02-02T17:13:43.529Z,-0.10
2023-02-02T17:16:50.346Z,-0.12
2023-02-02T17:19:57.392Z,-0.12
2023-02-02T17:23:10.870Z,-0.19
2023-02-02T17:26:17.951Z,-0.20
2023-02-02T17:29:26.281Z,-0.35
2023-02-02T17:32:35.216Z,-0.41
2023-02-02T17:35:53.565Z,-0.58
2023-02-02T17:39:03.438Z,-0.59
2023-02-02T17:42:27.671Z,-0.61
2023-02-02T17:45:37.267Z,-0.55
2023-02-02T17:48:43.379Z,-0.46
2023-02-02T17:51:51.070Z,-0.62
2023-02-02T17:54:59.768Z,-0.60
2023-02-02T17:58:10.698Z,-0.80
2023-02-02T18:01:16.855Z,-0.80
2023-02-02T18:04:25.219Z,-0.96
2023-02-02T18:07:31.388Z,-1.09
2023-02-02T18:10:49.392Z,-1.16
2023-02-02T18:13:55.433Z,-1.29
2023-02-02T18:17:10.196Z,-1.30
2023-02-02T18:20:23.200Z,-1.15
2023-02-02T18:23:30.643Z,-1.32
2023-02-02T18:26:44.131Z,-1.24
2023-02-02T18:29:51.746Z,-1.27
2023-02-02T18:32:57.771Z,-1.18
2023-02-02T18:36:04.647Z,-1.08
2023-02-02T18:39:11.773Z,-1.08
2023-02-02T18:42:21.468Z,-0.87
2023-02-02T18:45:27.956Z,-0.82
2023-02-02T18:48:35.698Z,-0.88
2023-02-02T18:51:45.022Z,-0.76
2023-02-02T18:54:52.993Z,-0.71
2023-02-02T18:58:02.173Z,-0.68
2023-02-02T19:01:13.813Z,-0.63
2023-02-02T19:04:20.058Z,-0.79
2023-02-02T19:07:39.298Z,-0.78
2023-02-02T19:10:52.050Z,-0.87
2023-02-02T19:14:04.902Z,-0.98
2023-02-02T19:17:25.179Z,-1.10
2023-02-02T19:20:34.006Z,-1.04
2023-02-02T19:23:46.871Z,-1.08
2023-02-02T19:26:54.180Z,-1.01
2023-02-02T19:30:06.038Z,-1.14
2023-02-02T19:33:17.467Z,-1.10
2023-02-02T19:36:31.137Z,-1.06
2023-02-02T19:39:37.932Z,-1.06
2023-02-02T19:42:52.535Z,-1.05
2023-02-02T19:46:04.479Z,-1.08
2023-02-02T19:49:21.377Z,-1.22
2023-02-02T19:52:30.129Z,-1.32
2023-02-02T19:55:40.226Z,-1.33
2023-02-02T19:58:59.140Z,-1.29
2023-02-02T20:02:51.876Z,-1.31
2023-02-02T20:06:08.157Z,-1.34
2023-02-02T20:09:19.807Z,-1.29
2023-02-02T20:12:34.951Z,-1.39
2023-02-02T20:15:43.318Z,-1.29
2023-02-02T20:18:57.134Z,-1.26
2023-02-02T20:22:04.424Z,-1.14
2023-02-02T20:25:11.890Z,-1.08
2023-02-02T20:28:40.217Z,-1.18
2023-02-02T20:31:50.580Z,-1.24
2023-02-02T20:35:02.506Z,-1.30
2023-02-02T20:38:23.700Z,-1.34
2023-02-02T20:41:29.784Z,-1.37
2023-02-02T20:44:38.362Z,-1.43
2023-02-02T20:47:44.417Z,-1.64
2023-02-02T20:50:53.907Z,-1.63
2023-02-02T20:54:07.717Z,-1.52
2023-02-02T20:57:14.880Z,-1.57
2023-02-02T21:00:30.446Z,-1.51
2023-02-02T21:03:39.385Z,-1.59
2023-02-02T21:06:49.442Z,-1.61
2023-02-02T21:09:56.481Z,-1.64
2023-02-02T21:13:22.068Z,-1.58
2023-02-02T21:16:30.350Z,-1.55
2023-02-02T21:19:36.449Z,-1.57
2023-02-02T21:22:46.165Z,-1.64
2023-02-02T21:25:55.422Z,-1.67
2023-02-02T21:29:02.503Z,-1.88
2023-02-02T21:32:09.211Z,-1.82
2023-02-02T21:35:21.030Z,-1.82
2023-02-02T21:38:30.314Z,-1.84
2023-02-02T21:41:37.756Z,-1.82
2023-02-02T21:44:49.885Z,-1.80
2023-02-02T21:48:00.798Z,-1.73
2023-02-02T21:51:27.081Z,-1.76
2023-02-02T21:54:41.388Z,-1.76
2023-02-02T21:57:47.319Z,-1.81
2023-02-02T22:00:55.495Z,-1.93
2023-02-02T22:04:08.109Z,-1.83
2023-02-02T22:07:31.114Z,-1.96
2023-02-02T22:10:45.482Z,-1.99
2023-02-02T22:13:52.690Z,-2.04
2023-02-02T22:17:02.064Z,-2.02
2023-02-02T22:20:32.932Z,-2.14
2023-02-02T22:23:45.784Z,-2.29
2023-02-02T22:26:55.801Z,-2.40
2023-02-02T22:30:20.428Z,-2.21
2023-02-02T22:33:27.942Z,-2.14
2023-02-02T22:36:33.893Z,-2.04
2023-02-02T22:39:42.954Z,-2.14
2023-02-02T22:42:51.593Z,-2.26
2023-02-02T22:45:58.482Z,-2.09
2023-02-02T22:49:04.650Z,-2.06
2023-02-02T22:52:11.378Z,-1.97
2023-02-02T22:55:18.257Z,-1.99
2023-02-02T22:58:28.572Z,-1.98
2023-02-02T23:01:34.447Z,-1.91
2023-02-02T23:04:41.192Z,-1.97
2023-02-02T23:07:48.061Z,-1.94
2023-02-02T23:10:54.861Z,-1.96
2023-02-02T23:14:03.555Z,-1.99
2023-02-02T23:17:10.703Z,-2.11
2023-02-02T23:20:18.153Z,-2.11
2023-02-02T23:23:25.134Z,-2.00
2023-02-02T23:26:30.983Z,-2.10
2023-02-02T23:29:40.243Z,-2.20
2023-02-02T23:32:46.384Z,-2.07
2023-02-02T23:35:53.048Z,-1.96
2023-02-02T23:38:58.985Z,-1.96
2023-02-02T23:42:05.799Z,-2.00
2023-02-02T23:45:16.232Z,-1.97
2023-02-02T23:48:24.320Z,-1.94
2023-02-02T23:51:33.563Z,-2.05
2023-02-02T23:54:44.000Z,-2.15
2023-02-02T23:57:50.339Z,-2.10
